createdAt,value
2018-02-15T00:00:47.830Z,93.80
2018-02-15T00:03:15.923Z,93.10
2018-02-15T00:05:43.874Z,92.70
2018-02-15T00:08:11.963Z,92.90
2018-02-15T00:10:40.012Z,93.30
2018-02-15T00:13:07.971Z,93.50
2018-02-15T00:15:35.826Z,93.60
2018-02-15T00:18:03.736Z,93.80
2018-02-15T00:20:31.581Z,93.90
2018-02-15T00:22:59.777Z,93.90
2018-02-15T00:25:28.224Z,94.10
2018-02-15T00:27:56.126Z,94.10
2018-02-15T00:30:24.163Z,93.70
2018-02-15T00:32:52.165Z,93.40
2018-02-15T00:35:20.239Z,93.10
2018-02-15T00:37:48.103Z,92.60
2018-02-15T00:40:16.082Z,92.30
2018-02-15T00:42:44.244Z,92.40
2018-02-15T00:45:12.320Z,92.40
2018-02-15T00:47:40.903Z,92.20
2018-02-15T00:50:08.736Z,91.90
2018-02-15T00:52:36.841Z,91.90
2018-02-15T00:55:04.984Z,92.10
2018-02-15T00:57:32.883Z,91.90
2018-02-15T01:00:00.956Z,92.00
2018-02-15T01:02:28.895Z,92.00
2018-02-15T01:04:56.876Z,92.20
2018-02-15T01:07:24.759Z,92.60
2018-02-15T01:09:52.811Z,92.50
2018-02-15T01:12:20.699Z,92.60
2018-02-15T01:14:49.386Z,93.10
2018-02-15T01:17:17.307Z,93.50
2018-02-15T01:19:45.324Z,93.90
2018-02-15T01:22:13.393Z,94.40
2018-02-15T01:24:41.418Z,94.50
2018-02-15T01:27:09.272Z,94.60
2018-02-15T01:29:38.172Z,94.80
2018-02-15T01:32:06.096Z,94.80
2018-02-15T01:34:34.162Z,95.10
2018-02-15T01:37:02.131Z,95.30
2018-02-15T01:39:30.295Z,95.30
2018-02-15T01:41:58.171Z,95.00
2018-02-15T01:44:26.243Z,95.20
2018-02-15T01:46:54.395Z,95.30
2018-02-15T01:49:22.387Z,94.90
2018-02-15T01:51:50.534Z,95.00
2018-02-15T01:54:18.946Z,95.00
2018-02-15T01:56:46.804Z,95.20
2018-02-15T01:59:14.727Z,95.20
2018-02-15T02:01:42.847Z,95.10
2018-02-15T02:04:10.917Z,94.40
2018-02-15T02:06:38.936Z,94.10
2018-02-15T02:09:06.855Z,94.10
2018-02-15T02:11:35.039Z,93.90
2018-02-15T02:14:02.896Z,93.60
2018-02-15T02:16:30.866Z,93.50
2018-02-15T02:18:58.908Z,94.20
2018-02-15T02:21:26.840Z,94.40
2018-02-15T02:23:55.694Z,94.80
2018-02-15T02:26:23.969Z,94.80
2018-02-15T02:28:52.096Z,94.70
2018-02-15T02:31:20.315Z,94.90
2018-02-15T02:33:48.409Z,95.00
2018-02-15T02:36:16.257Z,95.10
2018-02-15T02:38:44.171Z,95.20
2018-02-15T02:41:12.952Z,95.40
2018-02-15T02:43:41.804Z,95.50
2018-02-15T02:46:09.844Z,95.50
2018-02-15T02:48:37.900Z,95.60
2018-02-15T02:51:05.917Z,95.60
2018-02-15T02:53:33.884Z,95.60
2018-02-15T02:56:01.752Z,95.40
2018-02-15T02:58:29.993Z,95.30
2018-02-15T03:00:58.100Z,95.50
2018-02-15T03:03:26.133Z,95.50
2018-02-15T03:05:54.042Z,95.60
2018-02-15T03:08:21.971Z,95.70
2018-02-15T03:10:49.823Z,95.80
2018-02-15T03:13:17.839Z,95.70
2018-02-15T03:15:46.088Z,95.50
2018-02-15T03:18:14.044Z,95.20
2018-02-15T03:20:42.158Z,95.40
2018-02-15T03:23:10.028Z,95.60
2018-02-15T03:25:38.816Z,95.70
2018-02-15T03:28:06.692Z,95.60
2018-02-15T03:30:34.608Z,95.70
2018-02-15T03:33:02.476Z,95.60
2018-02-15T03:35:30.255Z,95.30
2018-02-15T03:37:58.157Z,95.40
2018-02-15T03:40:26.018Z,95.40
2018-02-15T03:42:53.877Z,94.90
2018-02-15T03:45:21.920Z,94.70
2018-02-15T03:47:49.923Z,94.80
2018-02-15T03:50:17.994Z,95.00
2018-02-15T03:52:46.021Z,95.50
2018-02-15T03:55:14.036Z,95.70
2018-02-15T03:57:42.784Z,95.30
2018-02-15T04:00:10.896Z,95.30
2018-02-15T04:02:39.070Z,95.10
2018-02-15T04:05:06.938Z,95.90
2018-02-15T04:07:34.912Z,95.80
2018-02-15T04:10:02.776Z,95.30
2018-02-15T04:12:30.849Z,95.40
2018-02-15T04:14:59.121Z,95.40
2018-02-15T04:17:27.164Z,95.60
2018-02-15T04:19:55.365Z,95.20
2018-02-15T04:22:23.462Z,94.90
2018-02-15T04:24:52.531Z,95.10
2018-02-15T04:27:20.785Z,95.10
2018-02-15T04:29:48.839Z,95.40
2018-02-15T04:32:16.756Z,95.90
2018-02-15T04:34:44.818Z,95.80
2018-02-15T04:37:12.975Z,95.60
2018-02-15T04:39:40.866Z,95.20
2018-02-15T04:42:08.931Z,94.80
2018-02-15T04:44:36.858Z,94.20
2018-02-15T04:47:04.948Z,93.90
2018-02-15T04:49:32.839Z,94.20
2018-02-15T04:52:00.796Z,94.10
2018-02-15T04:54:28.883Z,93.70
2018-02-15T04:56:56.704Z,93.70
2018-02-15T04:59:24.699Z,93.90
2018-02-15T05:01:52.879Z,94.30
2018-02-15T05:04:20.756Z,94.70
2018-02-15T05:06:48.910Z,95.10
2018-02-15T05:09:16.799Z,95.20
2018-02-15T05:11:45.073Z,95.60
2018-02-15T05:14:12.988Z,96.20
2018-02-15T05:16:41.730Z,95.90
2018-02-15T05:19:09.796Z,95.80
2018-02-15T05:21:37.723Z,95.80
2018-02-15T05:24:05.737Z,95.40
2018-02-15T05:26:33.705Z,95.10
2018-02-15T05:29:01.660Z,95.80
2018-02-15T05:31:29.490Z,95.40
2018-02-15T05:33:58.067Z,95.10
2018-02-15T05:36:26.736Z,95.10
2018-02-15T05:38:54.564Z,95.00
2018-02-15T05:41:22.424Z,95.10
2018-02-15T05:43:50.315Z,95.40
2018-02-15T05:46:18.219Z,95.00
2018-02-15T05:48:46.740Z,95.00
2018-02-15T05:51:14.559Z,95.10
2018-02-15T05:53:43.078Z,95.50
2018-02-15T05:56:10.897Z,95.50
2018-02-15T05:58:38.946Z,95.60
2018-02-15T06:01:06.699Z,95.50
2018-02-15T06:03:34.615Z,95.30
2018-02-15T06:06:03.231Z,95.20
2018-02-15T06:08:31.130Z,95.20
2018-02-15T06:10:59.098Z,96.20
2018-02-15T06:13:27.346Z,96.50
2018-02-15T06:15:55.155Z,96.30
2018-02-15T06:18:22.975Z,95.60
2018-02-15T06:20:50.892Z,95.70
2018-02-15T06:23:18.703Z,95.70
2018-02-15T06:25:46.475Z,96.00
2018-02-15T06:28:14.355Z,95.90
2018-02-15T06:30:42.221Z,95.70
2018-02-15T06:33:09.977Z,95.70
2018-02-15T06:35:37.908Z,95.70
2018-02-15T06:38:06.493Z,95.40
2018-02-15T06:40:35.128Z,97.60
2018-02-15T06:43:02.968Z,97.60
2018-02-15T06:45:30.746Z,97.00
2018-02-15T06:47:58.585Z,96.30
2018-02-15T06:50:26.515Z,96.30
2018-02-15T06:52:54.251Z,96.00
2018-02-15T06:55:22.077Z,95.80
2018-02-15T06:57:50.836Z,94.90
2018-02-15T07:00:18.605Z,94.90
2018-02-15T07:02:46.456Z,94.90
2018-02-15T07:05:14.287Z,95.10
2018-02-15T07:07:42.142Z,95.10
2018-02-15T07:10:09.995Z,94.90
2018-02-15T07:12:38.666Z,95.00
2018-02-15T07:15:07.208Z,94.90
2018-02-15T07:17:35.085Z,94.90
2018-02-15T07:20:03.225Z,95.00
2018-02-15T07:22:31.230Z,94.90
2018-02-15T07:24:59.260Z,94.90
2018-02-15T07:27:27.234Z,94.40
2018-02-15T07:29:55.343Z,94.10
2018-02-15T07:32:23.160Z,93.70
2018-02-15T07:34:51.188Z,93.30
2018-02-15T07:37:19.352Z,93.50
2018-02-15T07:39:47.406Z,92.80
2018-02-15T07:42:15.496Z,92.70
2018-02-15T07:44:43.308Z,92.60
2018-02-15T07:47:12.124Z,92.60
2018-02-15T07:49:40.221Z,92.50
2018-02-15T07:52:08.152Z,92.40
2018-02-15T07:54:36.190Z,92.10
2018-02-15T07:57:05.050Z,91.50
2018-02-15T07:59:33.280Z,91.40
2018-02-15T08:02:01.139Z,91.40
2018-02-15T08:04:29.880Z,90.80
2018-02-15T08:06:57.746Z,90.70
2018-02-15T08:09:25.818Z,90.60
2018-02-15T08:11:53.839Z,91.10
2018-02-15T08:14:21.890Z,91.20
2018-02-15T08:16:50.792Z,91.30
2018-02-15T08:19:18.718Z,91.30
2018-02-15T08:21:46.893Z,91.60
2018-02-15T08:24:14.759Z,91.40
2018-02-15T08:26:42.985Z,90.90
2018-02-15T08:29:10.904Z,90.20
2018-02-15T08:31:38.784Z,88.70
2018-02-15T08:34:06.738Z,87.20
2018-02-15T08:36:34.915Z,86.40
2018-02-15T08:39:02.880Z,86.50
2018-02-15T08:41:30.852Z,88.10
2018-02-15T08:43:58.760Z,88.10
2018-02-15T08:46:27.652Z,86.50
2018-02-15T08:48:55.576Z,86.50
2018-02-15T08:51:23.445Z,84.50
2018-02-15T08:53:51.640Z,83.40
2018-02-15T08:56:19.691Z,80.20
2018-02-15T08:58:47.760Z,80.00
2018-02-15T09:01:15.726Z,78.10
2018-02-15T09:03:43.810Z,78.40
2018-02-15T09:06:11.876Z,77.00
2018-02-15T09:08:39.850Z,76.40
2018-02-15T09:11:07.924Z,77.10
2018-02-15T09:13:35.780Z,75.20
2018-02-15T09:16:03.706Z,75.60
2018-02-15T09:18:31.898Z,73.90
2018-02-15T09:20:59.676Z,73.20
2018-02-15T09:23:27.454Z,72.20
2018-02-15T09:25:55.377Z,69.10
2018-02-15T09:28:23.289Z,65.20
2018-02-15T09:30:51.120Z,63.20
2018-02-15T09:33:19.004Z,61.50
2018-02-15T09:35:47.104Z,60.60
2018-02-15T09:38:15.260Z,60.90
2018-02-15T09:40:43.239Z,59.70
2018-02-15T09:43:11.308Z,60.00
2018-02-15T09:45:39.297Z,59.80
2018-02-15T09:48:07.254Z,59.50
2018-02-15T09:50:35.521Z,58.10
2018-02-15T09:53:03.443Z,57.00
2018-02-15T09:55:31.771Z,56.80
2018-02-15T09:57:59.883Z,56.60
2018-02-15T10:00:28.536Z,57.30
2018-02-15T10:02:56.442Z,57.30
2018-02-15T10:05:24.301Z,56.60
2018-02-15T10:07:52.804Z,54.40
2018-02-15T10:10:20.725Z,54.30
2018-02-15T10:12:48.521Z,53.30
2018-02-15T10:15:17.089Z,49.80
2018-02-15T10:17:45.779Z,48.20
2018-02-15T10:20:14.347Z,47.00
2018-02-15T10:22:43.123Z,47.00
2018-02-15T10:25:11.092Z,46.80
2018-02-15T10:27:38.968Z,46.80
2018-02-15T10:30:06.774Z,46.50
2018-02-15T10:32:34.732Z,47.20
2018-02-15T10:35:03.278Z,44.10
2018-02-15T10:37:31.042Z,44.10
2018-02-15T10:39:58.942Z,43.20
2018-02-15T10:42:27.483Z,43.30
2018-02-15T10:44:55.249Z,43.30
2018-02-15T10:47:23.172Z,43.60
2018-02-15T10:49:51.072Z,42.10
2018-02-15T10:52:18.841Z,42.50
2018-02-15T10:54:46.769Z,43.10
2018-02-15T10:57:14.643Z,42.80
2018-02-15T10:59:42.468Z,43.10
2018-02-15T11:02:15.915Z,42.50
2018-02-15T11:05:01.219Z,42.00
2018-02-15T11:07:29.222Z,41.60
2018-02-15T11:09:57.865Z,40.70
2018-02-15T11:12:25.685Z,40.60
2018-02-15T11:14:54.495Z,40.30
2018-02-15T11:17:22.380Z,40.30
2018-02-15T11:19:50.528Z,40.80
2018-02-15T11:22:18.650Z,39.80
2018-02-15T11:24:46.511Z,38.90
2018-02-15T11:27:14.386Z,38.50
2018-02-15T11:29:43.169Z,38.10
2018-02-15T11:32:11.033Z,38.10
2018-02-15T11:34:39.076Z,38.00
2018-02-15T11:37:07.025Z,37.40
2018-02-15T11:39:35.045Z,37.60
2018-02-15T11:42:02.908Z,37.60
2018-02-15T11:44:30.889Z,37.30
2018-02-15T11:46:58.948Z,37.50
2018-02-15T11:49:26.825Z,37.10
2018-02-15T11:51:54.735Z,36.50
2018-02-15T11:54:22.758Z,36.20
2018-02-15T11:56:50.727Z,35.50
2018-02-15T11:59:18.691Z,35.50
2018-02-15T12:01:46.652Z,35.10
2018-02-15T12:04:14.698Z,34.30
2018-02-15T12:06:42.987Z,34.30
2018-02-15T12:09:10.902Z,33.60
2018-02-15T12:11:38.689Z,33.50
2018-02-15T12:14:07.259Z,33.00
2018-02-15T12:16:35.885Z,32.90
2018-02-15T12:19:03.737Z,32.90
2018-02-15T12:21:31.564Z,32.90
2018-02-15T12:23:59.449Z,31.10
2018-02-15T12:26:28.080Z,31.30
2018-02-15T12:28:56.169Z,31.30
2018-02-15T12:31:24.262Z,31.30
2018-02-15T12:33:52.518Z,31.20
2018-02-15T12:36:20.487Z,30.40
2018-02-15T12:38:48.663Z,30.00
2018-02-15T12:41:16.463Z,30.60
2018-02-15T12:43:45.205Z,30.00
2018-02-15T12:46:13.104Z,30.00
2018-02-15T12:48:41.143Z,30.10
2018-02-15T12:51:09.673Z,30.00
2018-02-15T12:53:38.416Z,30.00
2018-02-15T12:56:06.237Z,30.00
2018-02-15T12:58:34.083Z,30.60
2018-02-15T13:01:02.643Z,31.30
2018-02-15T13:03:30.540Z,31.30
2018-02-15T13:05:59.146Z,31.80
2018-02-15T13:08:26.956Z,31.80
2018-02-15T13:10:54.797Z,30.40
2018-02-15T13:13:28.648Z,30.20
2018-02-15T13:16:08.372Z,30.10
2018-02-15T13:18:36.648Z,31.90
2018-02-15T13:21:04.520Z,31.20
2018-02-15T13:23:32.584Z,29.70
2018-02-15T13:26:00.554Z,30.30
2018-02-15T13:28:39.174Z,30.90
2018-02-15T13:31:07.109Z,30.10
2018-02-15T13:33:34.900Z,30.60
2018-02-15T13:36:02.783Z,30.50
2018-02-15T13:38:30.641Z,30.80
2018-02-15T13:40:58.451Z,31.50
2018-02-15T13:43:27.064Z,29.80
2018-02-15T13:45:55.010Z,29.80
2018-02-15T13:48:22.825Z,30.00
2018-02-15T13:50:50.797Z,30.10
2018-02-15T13:53:19.041Z,30.80
2018-02-15T13:55:47.232Z,30.20
2018-02-15T13:58:15.314Z,30.00
2018-02-15T14:00:43.400Z,30.00
2018-02-15T14:03:11.355Z,29.70
2018-02-15T14:05:39.436Z,29.70
2018-02-15T14:08:07.393Z,30.60
2018-02-15T14:10:35.274Z,30.10
2018-02-15T14:13:03.129Z,30.10
2018-02-15T14:15:31.377Z,29.70
2018-02-15T14:17:59.270Z,29.30
2018-02-15T14:20:27.352Z,28.40
2018-02-15T14:22:55.481Z,27.10
2018-02-15T14:25:23.745Z,26.20
2018-02-15T14:27:51.940Z,25.60
2018-02-15T14:30:20.026Z,25.20
2018-02-15T14:32:47.916Z,24.70
2018-02-15T14:35:15.769Z,23.90
2018-02-15T14:37:43.725Z,23.10
2018-02-15T14:40:11.558Z,22.40
2018-02-15T14:42:39.424Z,22.30
2018-02-15T14:45:08.024Z,22.80
2018-02-15T14:47:35.831Z,22.80
2018-02-15T14:50:03.616Z,23.00
2018-02-15T14:52:31.525Z,23.70
2018-02-15T14:54:59.384Z,24.40
2018-02-15T14:57:27.305Z,24.90
2018-02-15T14:59:55.173Z,24.80
2018-02-15T15:02:23.004Z,25.00
2018-02-15T15:04:50.870Z,24.70
2018-02-15T15:07:18.757Z,24.20
2018-02-15T15:09:46.600Z,23.50
2018-02-15T15:12:14.512Z,23.40
2018-02-15T15:14:42.424Z,24.20
2018-02-15T15:17:10.198Z,25.70
2018-02-15T15:19:38.064Z,26.90
2018-02-15T15:22:05.920Z,29.00
2018-02-15T15:24:33.774Z,30.20
2018-02-15T15:27:01.697Z,31.20
2018-02-15T15:29:29.608Z,32.10
2018-02-15T15:31:58.188Z,33.50
2018-02-15T15:34:26.756Z,34.30
2018-02-15T15:36:55.365Z,35.00
2018-02-15T15:39:23.235Z,34.90
2018-02-15T15:41:51.089Z,35.40
2018-02-15T15:44:19.716Z,36.90
2018-02-15T15:46:47.610Z,36.90
2018-02-15T15:49:15.467Z,37.10
2018-02-15T15:51:43.395Z,37.60
2018-02-15T15:54:11.220Z,38.10
2018-02-15T15:56:39.066Z,38.10
2018-02-15T15:59:07.038Z,38.70
2018-02-15T16:01:34.809Z,39.10
2018-02-15T16:04:02.665Z,39.60
2018-02-15T16:06:30.605Z,39.90
2018-02-15T16:08:58.481Z,39.70
2018-02-15T16:11:26.352Z,40.40
2018-02-15T16:13:54.235Z,40.60
2018-02-15T16:16:22.096Z,40.80
2018-02-15T16:18:50.173Z,41.00
2018-02-15T16:21:18.197Z,41.30
2018-02-15T16:23:46.269Z,41.80
2018-02-15T16:26:14.264Z,42.00
2018-02-15T16:28:42.314Z,42.50
2018-02-15T16:31:10.220Z,43.20
2018-02-15T16:33:38.090Z,44.20
2018-02-15T16:36:05.993Z,44.40
2018-02-15T16:38:34.845Z,45.80
2018-02-15T16:41:02.817Z,45.80
2018-02-15T16:43:31.174Z,46.70
2018-02-15T16:45:59.454Z,46.80
2018-02-15T16:48:27.281Z,47.00
2018-02-15T16:50:56.002Z,48.50
2018-02-15T16:53:23.891Z,48.50
2018-02-15T16:55:51.748Z,49.80
2018-02-15T16:58:20.777Z,50.80
2018-02-15T17:00:49.345Z,51.60
2018-02-15T17:03:17.177Z,51.40
2018-02-15T17:05:45.130Z,51.80
2018-02-15T17:08:12.976Z,52.00
2018-02-15T17:10:41.623Z,51.90
2018-02-15T17:13:09.557Z,51.80
2018-02-15T17:15:37.427Z,51.80
2018-02-15T17:18:05.345Z,52.20
2018-02-15T17:20:33.277Z,52.80
2018-02-15T17:23:01.175Z,53.80
2018-02-15T17:25:29.029Z,54.00
2018-02-15T17:27:56.907Z,53.90
2018-02-15T17:30:24.820Z,55.00
2018-02-15T17:32:52.796Z,56.30
2018-02-15T17:35:20.741Z,57.00
2018-02-15T17:37:49.401Z,58.50
2018-02-15T17:40:18.028Z,58.50
2018-02-15T17:42:46.141Z,58.40
2018-02-15T17:45:13.961Z,59.00
2018-02-15T17:47:41.877Z,59.90
2018-02-15T17:50:09.870Z,59.70
2018-02-15T17:52:38.540Z,60.50
2018-02-15T17:55:06.379Z,59.80
2018-02-15T17:57:34.256Z,60.60
2018-02-15T18:00:02.081Z,60.80
2018-02-15T18:02:30.007Z,61.40
2018-02-15T18:04:58.033Z,61.70
2018-02-15T18:07:26.037Z,61.80
2018-02-15T18:09:54.018Z,62.00
2018-02-15T18:12:21.980Z,62.30
2018-02-15T18:14:50.152Z,63.00
2018-02-15T18:17:18.006Z,64.00
2018-02-15T18:19:45.977Z,64.20
2018-02-15T18:22:13.840Z,64.80
2018-02-15T18:24:41.626Z,65.10
2018-02-15T18:27:09.596Z,66.00
2018-02-15T18:29:37.409Z,66.60
2018-02-15T18:32:05.299Z,66.70
2018-02-15T18:34:33.528Z,66.30
2018-02-15T18:37:02.124Z,67.50
2018-02-15T18:39:30.748Z,68.90
2018-02-15T18:41:58.712Z,68.90
2018-02-15T18:44:26.577Z,71.00
2018-02-15T18:46:54.482Z,73.30
2018-02-15T18:49:22.897Z,74.60
2018-02-15T18:51:50.841Z,75.30
2018-02-15T18:54:19.498Z,76.70
2018-02-15T18:56:47.582Z,76.60
2018-02-15T18:59:15.696Z,75.60
2018-02-15T19:01:43.481Z,74.70
2018-02-15T19:04:11.391Z,74.50
2018-02-15T19:06:39.608Z,74.10
2018-02-15T19:09:07.437Z,74.60
2018-02-15T19:11:35.469Z,74.70
2018-02-15T19:14:03.394Z,75.50
2018-02-15T19:16:31.244Z,76.10
2018-02-15T19:18:59.199Z,76.30
2018-02-15T19:21:27.172Z,77.00
2018-02-15T19:23:55.017Z,77.60
2018-02-15T19:26:23.022Z,78.50
2018-02-15T19:28:51.172Z,79.00
2018-02-15T19:31:19.171Z,78.60
2018-02-15T19:33:47.999Z,76.70
2018-02-15T19:36:15.875Z,76.60
2018-02-15T19:38:44.048Z,75.70
2018-02-15T19:41:12.455Z,76.90
2018-02-15T19:43:40.677Z,77.80
2018-02-15T19:46:08.696Z,78.60
2018-02-15T19:48:37.498Z,79.40
2018-02-15T19:51:05.393Z,79.40
2018-02-15T19:53:33.976Z,80.50
2018-02-15T19:56:01.937Z,80.40
2018-02-15T19:58:29.875Z,81.80
2018-02-15T20:00:58.261Z,82.90
2018-02-15T20:03:26.225Z,83.50
2018-02-15T20:05:54.781Z,83.80
2018-02-15T20:08:22.880Z,84.30
2018-02-15T20:10:51.259Z,84.70
2018-02-15T20:13:19.533Z,84.70
2018-02-15T20:15:47.409Z,84.20
2018-02-15T20:18:15.389Z,83.80
2018-02-15T20:20:43.149Z,84.00
2018-02-15T20:23:11.066Z,83.00
2018-02-15T20:25:38.937Z,82.10
2018-02-15T20:28:12.493Z,81.60
2018-02-15T20:30:41.221Z,81.60
2018-02-15T20:33:09.013Z,81.40
2018-02-15T20:35:36.876Z,80.40
2018-02-15T20:38:10.422Z,79.30
2018-02-15T20:40:39.069Z,79.10
2018-02-15T20:43:06.922Z,79.10
2018-02-15T20:45:34.787Z,79.30
2018-02-15T20:48:02.683Z,79.10
2018-02-15T20:50:36.198Z,79.00
2018-02-15T20:53:10.255Z,79.80
2018-02-15T20:55:43.822Z,79.70
2018-02-15T20:58:12.457Z,81.00
2018-02-15T21:00:40.372Z,80.90
2018-02-15T21:03:09.247Z,82.40
2018-02-15T21:05:37.038Z,82.40
2018-02-15T21:08:05.679Z,83.10
2018-02-15T21:10:33.635Z,83.00
2018-02-15T21:13:01.439Z,83.80
2018-02-15T21:15:30.109Z,86.90
2018-02-15T21:17:58.070Z,86.70
2018-02-15T21:20:25.981Z,87.60
2018-02-15T21:22:54.645Z,89.90
2018-02-15T21:25:23.365Z,90.40
2018-02-15T21:27:51.235Z,90.00
2018-02-15T21:30:19.161Z,90.20
2018-02-15T21:32:47.027Z,90.30
2018-02-15T21:35:14.964Z,90.40
2018-02-15T21:37:43.301Z,90.70
2018-02-15T21:40:11.964Z,90.20
2018-02-15T21:42:39.765Z,90.20
2018-02-15T21:45:07.570Z,89.90
2018-02-15T21:47:35.465Z,89.20
2018-02-15T21:50:04.097Z,88.70
2018-02-15T21:52:31.910Z,88.50
2018-02-15T21:54:59.750Z,88.90
2018-02-15T21:57:27.661Z,89.20
2018-02-15T21:59:56.345Z,90.40
2018-02-15T22:02:24.339Z,90.40
2018-02-15T22:04:52.206Z,90.60
2018-02-15T22:07:20.036Z,90.90
2018-02-15T22:09:47.989Z,91.10
2018-02-15T22:12:15.809Z,89.70
2018-02-15T22:14:43.689Z,89.00
2018-02-15T22:17:11.629Z,88.00
2018-02-15T22:19:39.513Z,87.70
2018-02-15T22:22:07.381Z,87.20
2018-02-15T22:24:35.376Z,87.60
2018-02-15T22:27:03.227Z,88.60
2018-02-15T22:29:31.093Z,89.00
2018-02-15T22:31:58.974Z,88.50
2018-02-15T22:34:26.860Z,88.50
2018-02-15T22:36:54.654Z,88.90
2018-02-15T22:39:23.406Z,90.20
2018-02-15T22:41:51.295Z,90.10
2018-02-15T22:44:19.860Z,90.90
2018-02-15T22:46:47.773Z,90.50
2018-02-15T22:49:15.620Z,90.10
2018-02-15T22:51:44.419Z,89.90
2018-02-15T22:54:13.137Z,90.30
2018-02-15T22:56:40.961Z,90.30
2018-02-15T22:59:08.855Z,90.50
2018-02-15T23:01:36.821Z,90.50
2018-02-15T23:04:04.701Z,90.20
2018-02-15T23:06:32.581Z,90.20
2018-02-15T23:09:00.486Z,90.40
2018-02-15T23:11:28.388Z,90.70
2018-02-15T23:13:56.226Z,90.70
2018-02-15T23:16:24.066Z,91.10
2018-02-15T23:18:51.878Z,91.10
2018-02-15T23:21:20.458Z,91.70
2018-02-15T23:23:49.143Z,92.00
2018-02-15T23:26:17.785Z,92.20
2018-02-15T23:28:45.587Z,92.20
2018-02-15T23:31:14.284Z,92.20
2018-02-15T23:33:42.818Z,92.80
2018-02-15T23:36:10.636Z,92.80
2018-02-15T23:38:38.476Z,93.50
2018-02-15T23:41:06.239Z,93.70
2018-02-15T23:43:34.040Z,93.70
2018-02-15T23:46:01.895Z,93.70
2018-02-15T23:48:30.441Z,92.30
2018-02-15T23:50:58.287Z,92.30
2018-02-15T23:53:26.172Z,91.80
2018-02-15T23:55:54.033Z,91.60
2018-02-15T23:58:21.921Z,91.50
